Time;durP1;ratioP1;P1;durP2;ratioP2;P2;SDS_P1;SDS_P2;PMS_P1;PMS_P2;Temp;Humidity;BMP_temperature;BMP_pressure;BME280_temperature;BME280_humidity;BME280_pressure;Samples;Min_cycle;Max_cycle;Signal;HPM_P1;HPM_P2
2023/05/23 00:00:53;;;;;;;29.10;17.05;;;16.00;99.90;;;;;;5047440;28;20529;-62
2023/05/23 00:03:21;;;;;;;23.67;16.73;;;15.90;99.90;;;;;;5043301;28;20037;-62
2023/05/23 00:05:48;;;;;;;29.65;16.23;;;15.90;99.90;;;;;;5056071;28;20076;-62
2023/05/23 00:08:13;;;;;;;23.75;15.85;;;15.90;99.90;;;;;;5030241;28;20033;-62
2023/05/23 00:10:39;;;;;;;26.10;15.73;;;15.80;99.90;;;;;;5050004;28;20107;-62
2023/05/23 00:13:08;;;;;;;24.30;15.35;;;15.80;99.90;;;;;;5044932;28;20036;-62
2023/05/23 00:15:37;;;;;;;25.30;14.52;;;15.80;99.90;;;;;;5052386;28;20067;-63
2023/05/23 00:18:03;;;;;;;22.52;14.35;;;15.80;99.90;;;;;;5048058;28;20037;-62
2023/05/23 00:20:29;;;;;;;18.55;13.52;;;15.80;99.90;;;;;;5049357;28;20402;-63
2023/05/23 00:22:57;;;;;;;22.98;13.73;;;15.80;99.90;;;;;;5044430;22;20050;-62
2023/05/23 00:25:23;;;;;;;23.65;14.57;;;15.80;99.90;;;;;;5000671;28;20038;-62
2023/05/23 00:27:50;;;;;;;25.38;14.00;;;15.80;99.90;;;;;;5027069;28;20080;-61
2023/05/23 00:30:16;;;;;;;21.20;13.52;;;15.80;99.90;;;;;;5007683;28;20068;-62
2023/05/23 00:32:41;;;;;;;27.80;14.68;;;15.70;99.90;;;;;;5009349;28;20038;-62
2023/05/23 00:35:07;;;;;;;24.27;13.63;;;15.70;99.90;;;;;;5028118;28;20380;-62
2023/05/23 00:37:33;;;;;;;27.13;14.27;;;15.70;99.90;;;;;;5002011;28;20065;-62
2023/05/23 00:39:59;;;;;;;27.90;15.57;;;15.70;99.90;;;;;;5006659;28;20054;-62
2023/05/23 00:42:24;;;;;;;27.88;15.15;;;15.60;99.90;;;;;;5005743;28;20488;-62
2023/05/23 00:44:50;;;;;;;27.65;15.38;;;15.60;99.90;;;;;;5008842;28;20176;-62
2023/05/23 00:47:17;;;;;;;28.67;15.30;;;15.60;99.90;;;;;;5028786;28;20399;-62
2023/05/23 00:49:43;;;;;;;28.77;15.70;;;15.60;99.90;;;;;;5031243;28;20029;-61
2023/05/23 00:52:09;;;;;;;33.20;15.95;;;15.60;99.90;;;;;;5027954;28;20042;-61
2023/05/23 00:54:35;;;;;;;33.75;15.18;;;15.60;99.90;;;;;;5023512;28;20069;-62
2023/05/23 00:57:01;;;;;;;28.73;15.38;;;15.60;99.90;;;;;;5027487;28;20041;-61
2023/05/23 00:59:27;;;;;;;27.25;14.57;;;15.50;99.90;;;;;;5012418;28;20048;-61
2023/05/23 01:01:55;;;;;;;24.95;14.57;;;15.60;99.90;;;;;;5022985;28;20096;-61
2023/05/23 01:04:25;;;;;;;25.48;14.45;;;15.60;99.90;;;;;;5009727;28;20551;-61
2023/05/23 01:06:54;;;;;;;27.42;14.40;;;15.50;99.90;;;;;;5000798;28;20049;-61
2023/05/23 01:09:21;;;;;;;24.00;13.38;;;15.50;99.90;;;;;;5027859;28;20052;-62
2023/05/23 01:11:56;;;;;;;22.23;13.10;;;15.50;99.90;;;;;;5009262;28;20116;-61
2023/05/23 01:14:31;;;;;;;21.42;12.90;;;15.40;99.90;;;;;;5013512;28;20045;-62
2023/05/23 01:17:25;;;;;;;25.13;13.52;;;15.40;99.90;;;;;;5002444;28;20095;-62
2023/05/23 01:19:51;;;;;;;18.60;12.63;;;15.40;99.90;;;;;;5021503;28;20033;-61
2023/05/23 01:22:38;;;;;;;19.48;11.88;;;15.40;99.90;;;;;;5015003;28;20124;-62
2023/05/23 01:25:16;;;;;;;21.55;11.82;;;15.40;99.90;;;;;;5025394;28;20128;-61
2023/05/23 01:27:54;;;;;;;18.80;10.95;;;15.40;99.90;;;;;;5008459;28;20044;-61
2023/05/23 01:30:20;;;;;;;18.02;11.13;;;15.40;99.90;;;;;;4996146;28;20146;-62
2023/05/23 01:32:47;;;;;;;18.20;10.90;;;15.40;99.90;;;;;;5014591;28;20158;-62
2023/05/23 01:35:17;;;;;;;18.15;11.15;;;15.40;99.90;;;;;;5025207;28;20068;-62
2023/05/23 01:37:43;;;;;;;21.67;12.20;;;15.40;99.90;;;;;;5008989;28;20073;-62
2023/05/23 01:40:09;;;;;;;20.40;11.63;;;15.40;99.90;;;;;;5019087;28;20383;-62
2023/05/23 01:42:35;;;;;;;23.38;11.40;;;15.30;99.90;;;;;;5027716;28;20052;-61
2023/05/23 01:45:00;;;;;;;19.42;11.88;;;15.30;99.90;;;;;;4994196;28;20050;-62
2023/05/23 01:47:26;;;;;;;21.25;11.98;;;15.30;99.90;;;;;;5013128;28;20499;-62
2023/05/23 01:49:54;;;;;;;20.08;11.73;;;15.30;99.90;;;;;;5003962;28;20661;-62
2023/05/23 01:52:20;;;;;;;23.90;12.15;;;15.30;99.90;;;;;;5024722;28;20056;-61
2023/05/23 01:54:47;;;;;;;20.42;11.55;;;15.40;99.90;;;;;;5017419;28;20041;-62
2023/05/23 01:57:13;;;;;;;19.42;11.10;;;15.30;99.90;;;;;;5018859;28;20492;-62
2023/05/23 01:59:39;;;;;;;22.77;11.20;;;15.30;99.90;;;;;;5009373;28;20087;-61
2023/05/23 02:02:05;;;;;;;20.85;11.82;;;15.30;99.90;;;;;;5030516;28;20037;-61
2023/05/23 02:04:31;;;;;;;17.85;10.75;;;15.30;99.90;;;;;;5028464;28;20038;-62
2023/05/23 02:06:56;;;;;;;22.30;10.52;;;15.30;99.90;;;;;;5005728;28;20053;-61
2023/05/23 02:09:22;;;;;;;19.05;10.88;;;15.30;99.90;;;;;;5030831;28;20419;-61
2023/05/23 02:11:47;;;;;;;20.98;11.15;;;15.20;99.90;;;;;;5029293;28;20072;-61
2023/05/23 02:14:13;;;;;;;24.25;11.25;;;15.20;99.90;;;;;;5013140;28;20037;-61
2023/05/23 02:16:38;;;;;;;20.65;11.15;;;15.20;99.90;;;;;;5012690;28;20050;-61
2023/05/23 02:19:04;;;;;;;22.08;11.05;;;15.10;99.90;;;;;;5008467;28;20044;-61
2023/05/23 02:21:30;;;;;;;20.27;10.90;;;15.20;99.90;;;;;;5009700;28;20099;-61
2023/05/23 02:23:56;;;;;;;23.17;10.98;;;15.10;99.90;;;;;;5002818;28;20099;-61
2023/05/23 02:26:21;;;;;;;24.73;11.05;;;15.10;99.90;;;;;;5014269;28;20037;-62
2023/05/23 02:28:47;;;;;;;21.77;10.68;;;15.10;99.90;;;;;;5028331;28;20079;-62
2023/05/23 02:31:13;;;;;;;24.48;10.98;;;15.10;99.90;;;;;;5029298;28;20094;-61
2023/05/23 02:33:38;;;;;;;22.95;11.18;;;15.10;99.90;;;;;;5024644;28;20044;-61
2023/05/23 02:36:04;;;;;;;24.75;10.45;;;15.10;99.90;;;;;;5022659;28;20044;-61
2023/05/23 02:38:30;;;;;;;22.33;10.93;;;15.00;99.90;;;;;;5028266;28;20091;-61
2023/05/23 02:40:56;;;;;;;24.63;11.55;;;15.00;99.90;;;;;;5022664;28;20036;-61
2023/05/23 02:43:22;;;;;;;19.08;10.50;;;15.10;99.90;;;;;;5024837;28;20041;-61
2023/05/23 02:45:48;;;;;;;27.95;11.52;;;15.00;99.90;;;;;;5027167;28;20430;-61
2023/05/23 02:48:13;;;;;;;24.92;10.73;;;14.90;99.90;;;;;;5013039;28;20168;-61
2023/05/23 02:50:39;;;;;;;23.95;10.52;;;15.00;99.90;;;;;;5026376;28;20404;-61
2023/05/23 02:53:05;;;;;;;18.52;9.98;;;15.00;99.90;;;;;;5024505;28;20045;-61
2023/05/23 02:55:30;;;;;;;24.40;10.80;;;15.00;99.90;;;;;;5019136;28;20052;-61
2023/05/23 02:57:57;;;;;;;29.08;10.32;;;15.00;99.90;;;;;;5025501;28;20044;-61
2023/05/23 03:00:23;;;;;;;22.95;10.73;;;14.90;99.90;;;;;;5011707;28;20099;-61
2023/05/23 03:02:49;;;;;;;23.77;11.48;;;14.90;99.90;;;;;;5011397;28;20373;-61
2023/05/23 03:05:15;;;;;;;24.52;10.40;;;15.00;99.90;;;;;;5021767;28;20112;-61
2023/05/23 03:07:40;;;;;;;25.58;11.05;;;14.90;99.90;;;;;;5007557;28;20076;-61
2023/05/23 03:10:07;;;;;;;23.55;10.63;;;14.90;99.90;;;;;;5004588;28;20031;-61
2023/05/23 03:12:32;;;;;;;24.60;10.55;;;14.90;99.90;;;;;;5005752;28;20092;-61
2023/05/23 03:14:58;;;;;;;17.75;10.50;;;14.90;99.90;;;;;;5017121;28;20499;-61
2023/05/23 03:17:24;;;;;;;22.15;10.73;;;14.90;99.90;;;;;;5012247;28;20041;-61
2023/05/23 03:19:50;;;;;;;16.98;9.77;;;14.80;99.90;;;;;;5015366;28;20068;-61
2023/05/23 03:22:16;;;;;;;24.60;9.82;;;14.90;99.90;;;;;;5018070;28;20074;-61
2023/05/23 03:24:42;;;;;;;24.90;9.98;;;14.80;99.90;;;;;;4998435;28;20038;-61
2023/05/23 03:27:08;;;;;;;21.48;9.82;;;14.80;99.90;;;;;;5015317;28;20392;-61
2023/05/23 03:29:33;;;;;;;18.02;9.80;;;14.80;99.90;;;;;;5009965;28;20034;-61
2023/05/23 03:31:59;;;;;;;17.38;8.80;;;14.80;99.90;;;;;;5024904;28;20037;-61
2023/05/23 03:34:25;;;;;;;24.52;9.60;;;14.80;99.90;;;;;;5026269;28;20041;-61
2023/05/23 03:36:52;;;;;;;19.00;9.13;;;14.70;99.90;;;;;;5007010;28;20084;-61
2023/05/23 03:39:17;;;;;;;20.27;9.10;;;14.70;99.90;;;;;;5027812;28;20065;-61
2023/05/23 03:41:43;;;;;;;17.80;8.70;;;14.70;99.90;;;;;;5004276;28;20077;-61
2023/05/23 03:44:09;;;;;;;20.60;9.40;;;14.20;99.90;;;;;;5018385;28;20568;-61
2023/05/23 03:46:34;;;;;;;17.95;8.88;;;14.70;99.90;;;;;;5011619;28;20099;-61
2023/05/23 03:49:00;;;;;;;22.23;8.95;;;14.70;99.90;;;;;;5000509;28;20037;-62
2023/05/23 03:51:26;;;;;;;19.02;8.50;;;14.70;99.90;;;;;;5015231;28;20073;-61
2023/05/23 03:53:52;;;;;;;23.73;9.00;;;14.70;99.90;;;;;;5002985;28;20163;-61
2023/05/23 03:56:18;;;;;;;17.50;8.48;;;14.70;99.90;;;;;;5025542;28;20052;-61
2023/05/23 03:58:44;;;;;;;20.23;8.75;;;14.70;99.90;;;;;;5024996;28;20055;-61
2023/05/23 04:01:10;;;;;;;20.30;8.80;;;14.60;99.90;;;;;;5024858;28;20499;-61
2023/05/23 04:03:35;;;;;;;24.67;9.00;;;14.60;99.90;;;;;;5002754;28;20130;-62
2023/05/23 04:06:01;;;;;;;20.45;9.00;;;14.60;99.90;;;;;;5010066;28;20089;-61
2023/05/23 04:08:28;;;;;;;22.33;9.07;;;14.60;99.90;;;;;;5021131;28;20052;-61
2023/05/23 04:10:54;;;;;;;24.45;8.70;;;14.60;99.90;;;;;;5027357;28;20054;-62
2023/05/23 04:13:20;;;;;;;24.40;9.23;;;14.50;99.90;;;;;;5024177;28;20420;-61
2023/05/23 04:15:46;;;;;;;19.17;8.13;;;14.50;99.90;;;;;;5020034;28;20286;-61
2023/05/23 04:18:13;;;;;;;20.58;8.23;;;14.40;99.90;;;;;;5010307;28;20037;-61
2023/05/23 04:20:40;;;;;;;20.20;7.78;;;14.50;99.90;;;;;;5026736;28;20037;-62
2023/05/23 04:23:06;;;;;;;18.27;8.18;;;14.50;99.90;;;;;;5010138;28;20091;-61
2023/05/23 04:25:33;;;;;;;16.42;7.22;;;14.50;99.90;;;;;;5031610;28;20030;-61
2023/05/23 04:27:58;;;;;;;18.48;7.50;;;14.50;99.90;;;;;;5031749;28;20392;-61
2023/05/23 04:30:24;;;;;;;19.90;7.10;;;14.50;99.90;;;;;;5033407;28;20043;-61
2023/05/23 04:32:49;;;;;;;19.35;7.25;;;14.50;99.90;;;;;;5023600;28;20037;-62
2023/05/23 04:35:15;;;;;;;18.20;6.53;;;14.40;99.90;;;;;;5029622;28;20041;-61
2023/05/23 04:37:41;;;;;;;13.85;6.22;;;14.50;99.90;;;;;;5033153;28;20519;-62
2023/05/23 04:40:07;;;;;;;18.35;6.40;;;14.40;99.90;;;;;;5032880;28;20037;-61
2023/05/23 04:42:33;;;;;;;15.85;5.40;;;14.50;99.90;;;;;;5006586;28;20038;-61
2023/05/23 04:45:01;;;;;;;15.13;5.70;;;14.40;99.90;;;;;;5010539;28;20037;-61
2023/05/23 04:47:27;;;;;;;13.88;5.97;;;14.40;99.90;;;;;;5007284;28;20042;-62
2023/05/23 04:49:56;;;;;;;16.75;5.80;;;14.40;99.90;;;;;;5013582;28;20060;-62
2023/05/23 04:52:22;;;;;;;12.80;5.45;;;14.40;99.90;;;;;;5012980;28;20120;-61
2023/05/23 04:54:47;;;;;;;12.90;5.47;;;14.20;99.90;;;;;;5009786;28;20167;-61
2023/05/23 04:57:13;;;;;;;11.68;5.30;;;14.30;99.90;;;;;;5022990;28;20069;-61
2023/05/23 04:59:39;;;;;;;13.70;5.45;;;14.30;99.90;;;;;;5025256;28;20091;-62
2023/05/23 05:02:05;;;;;;;14.23;5.53;;;14.20;99.90;;;;;;5006879;28;20045;-62
2023/05/23 05:04:31;;;;;;;13.85;5.38;;;14.20;99.90;;;;;;5004124;28;20053;-62
2023/05/23 05:06:56;;;;;;;13.48;5.32;;;14.30;99.90;;;;;;5010251;28;20033;-61
2023/05/23 05:09:22;;;;;;;16.27;6.35;;;14.20;99.90;;;;;;5023327;28;20559;-61
2023/05/23 05:11:48;;;;;;;13.32;5.28;;;14.20;99.90;;;;;;5005932;28;20056;-61
2023/05/23 05:14:14;;;;;;;14.85;6.05;;;14.20;99.90;;;;;;5005986;28;20037;-62
2023/05/23 05:16:41;;;;;;;13.57;6.00;;;14.20;99.90;;;;;;5031203;28;20037;-61
2023/05/23 05:19:07;;;;;;;17.80;6.68;;;14.20;99.90;;;;;;4998967;28;20117;-61
2023/05/23 05:21:32;;;;;;;18.13;6.68;;;14.20;99.90;;;;;;5014614;28;20159;-61
2023/05/23 05:23:58;;;;;;;17.05;6.10;;;14.10;99.90;;;;;;5014586;28;20042;-62
2023/05/23 05:26:25;;;;;;;16.83;6.32;;;14.10;99.90;;;;;;5021306;28;20549;-62
2023/05/23 05:28:51;;;;;;;19.92;6.57;;;14.10;99.90;;;;;;5014616;28;20491;-61
2023/05/23 05:31:17;;;;;;;17.13;6.35;;;14.10;99.90;;;;;;5006480;28;20155;-61
2023/05/23 05:33:44;;;;;;;17.05;5.63;;;14.10;99.90;;;;;;5029212;28;20076;-61
2023/05/23 05:36:10;;;;;;;18.08;5.97;;;14.10;99.90;;;;;;5007849;28;20485;-61
2023/05/23 05:38:36;;;;;;;20.73;5.85;;;14.40;99.90;;;;;;5014408;28;20048;-61
2023/05/23 05:41:02;;;;;;;16.23;5.95;;;14.10;99.90;;;;;;5023826;28;20038;-61
2023/05/23 05:43:27;;;;;;;18.23;5.90;;;14.00;99.90;;;;;;5012425;28;20041;-61
2023/05/23 05:45:53;;;;;;;15.30;6.10;;;14.00;99.90;;;;;;5007551;28;20069;-61
2023/05/23 05:48:19;;;;;;;18.52;5.63;;;14.00;99.90;;;;;;5006310;28;20091;-61
2023/05/23 05:50:45;;;;;;;14.35;5.47;;;13.90;99.90;;;;;;5020443;28;20682;-61
2023/05/23 05:53:12;;;;;;;17.40;5.63;;;13.90;99.90;;;;;;5019674;28;20110;-61
2023/05/23 05:55:37;;;;;;;15.13;5.80;;;13.90;99.90;;;;;;5001896;28;20060;-61
2023/05/23 05:58:03;;;;;;;14.70;5.68;;;13.90;99.90;;;;;;5023593;28;20034;-61
2023/05/23 06:00:29;;;;;;;13.77;5.65;;;13.90;99.90;;;;;;5027191;28;20041;-61
2023/05/23 06:02:56;;;;;;;19.17;6.10;;;13.90;99.90;;;;;;5028569;28;20045;-61
2023/05/23 06:05:22;;;;;;;14.27;6.00;;;13.90;99.90;;;;;;5010043;28;20033;-61
2023/05/23 06:07:49;;;;;;;16.23;5.15;;;13.90;99.90;;;;;;5004392;28;20040;-61
2023/05/23 06:10:15;;;;;;;15.65;5.30;;;13.80;99.90;;;;;;5027687;28;20053;-61
2023/05/23 06:12:40;;;;;;;13.93;5.20;;;13.80;99.90;;;;;;5010084;28;20438;-61
2023/05/23 06:15:06;;;;;;;15.88;6.15;;;13.80;99.90;;;;;;5023135;28;20026;-61
2023/05/23 06:17:32;;;;;;;14.98;5.93;;;13.80;99.90;;;;;;5000742;28;20153;-61
2023/05/23 06:19:58;;;;;;;13.23;5.60;;;13.80;99.90;;;;;;5005219;28;20080;-61
2023/05/23 06:24:55;;;;;;;17.35;6.22;;;13.70;99.90;;;;;;5037532;28;20516;-62
2023/05/23 06:27:21;;;;;;;15.82;6.10;;;13.70;99.90;;;;;;5022988;28;20055;-62
2023/05/23 06:29:46;;;;;;;15.70;6.22;;;13.70;99.90;;;;;;5042151;28;20479;-61
2023/05/23 06:32:12;;;;;;;15.63;5.82;;;13.70;99.90;;;;;;5024488;28;20127;-62
2023/05/23 06:34:37;;;;;;;13.43;5.65;;;13.80;99.90;;;;;;5040156;28;20180;-60
2023/05/23 06:37:03;;;;;;;16.23;5.68;;;13.70;99.90;;;;;;5050417;28;20083;-63
2023/05/23 06:39:29;;;;;;;12.52;4.95;;;13.70;99.90;;;;;;5025795;28;20037;-61
2023/05/23 06:41:55;;;;;;;16.52;5.10;;;13.70;99.90;;;;;;5050522;28;20056;-63
2023/05/23 06:44:20;;;;;;;14.35;5.50;;;13.70;99.90;;;;;;5032022;28;20124;-63
2023/05/23 06:46:46;;;;;;;11.95;4.82;;;13.80;99.90;;;;;;5031853;28;20124;-60
2023/05/23 06:49:12;;;;;;;14.32;5.10;;;13.70;99.90;;;;;;5053399;28;20039;-63
2023/05/23 06:51:38;;;;;;;13.65;4.43;;;13.80;99.90;;;;;;5032598;28;20040;-61
2023/05/23 06:54:04;;;;;;;14.30;4.60;;;13.80;99.90;;;;;;5049735;28;20118;-61
2023/05/23 06:56:30;;;;;;;12.13;4.68;;;13.80;99.90;;;;;;5028734;28;20136;-61
2023/05/23 06:58:55;;;;;;;11.07;4.45;;;13.90;99.90;;;;;;5032289;28;20160;-61
2023/05/23 07:01:21;;;;;;;11.73;4.40;;;13.90;99.90;;;;;;5050757;28;20562;-63
2023/05/23 07:03:46;;;;;;;11.32;3.90;;;13.90;99.90;;;;;;5037526;28;20033;-61
2023/05/23 07:06:12;;;;;;;16.08;4.43;;;14.30;99.90;;;;;;5036806;28;20030;-61
2023/05/23 07:08:38;;;;;;;12.07;4.40;;;13.90;99.90;;;;;;5025725;28;20029;-62
2023/05/23 07:11:05;;;;;;;11.52;4.30;;;13.90;99.90;;;;;;5045314;28;20509;-62
2023/05/23 07:13:31;;;;;;;11.65;3.70;;;13.80;99.90;;;;;;5026727;28;20045;-61
2023/05/23 07:15:56;;;;;;;11.18;3.35;;;13.90;99.90;;;;;;5041575;28;20120;-62
2023/05/23 07:18:23;;;;;;;12.48;3.95;;;13.90;99.90;;;;;;5045499;28;20538;-62
2023/05/23 07:20:48;;;;;;;12.48;3.17;;;14.00;99.90;;;;;;5045666;28;20041;-62
2023/05/23 07:23:14;;;;;;;17.70;5.82;;;14.10;99.90;;;;;;5045103;28;20095;-62
2023/05/23 07:25:41;;;;;;;15.82;3.75;;;14.20;99.90;;;;;;5048848;28;20041;-61
2023/05/23 07:28:07;;;;;;;9.90;3.17;;;14.20;99.90;;;;;;5025043;28;20041;-62
2023/05/23 07:30:33;;;;;;;12.13;3.05;;;14.30;99.90;;;;;;5027310;28;20044;-62
2023/05/23 07:32:58;;;;;;;14.13;4.10;;;14.30;99.90;;;;;;5048073;28;20044;-61
2023/05/23 07:35:24;;;;;;;12.75;3.90;;;14.40;99.90;;;;;;5047090;28;20049;-62
2023/05/23 07:37:54;;;;;;;14.88;3.95;;;14.40;99.90;;;;;;5044144;28;20052;-62
2023/05/23 07:40:20;;;;;;;16.88;3.88;;;14.40;99.90;;;;;;5043474;28;20033;-62
2023/05/23 07:42:46;;;;;;;12.77;3.60;;;14.40;99.90;;;;;;5044532;28;20399;-64
2023/05/23 07:45:12;;;;;;;13.95;3.67;;;14.40;99.90;;;;;;5041967;28;20043;-61
2023/05/23 07:47:38;;;;;;;18.95;4.05;;;14.50;99.90;;;;;;5048943;28;20068;-62
2023/05/23 07:50:05;;;;;;;14.40;4.15;;;14.50;99.90;;;;;;5044452;28;20433;-62
2023/05/23 07:52:31;;;;;;;18.15;4.60;;;14.50;99.90;;;;;;5049913;28;20048;-63
2023/05/23 07:54:57;;;;;;;19.33;4.60;;;14.50;99.90;;;;;;5047989;28;20483;-62
2023/05/23 07:57:26;;;;;;;16.35;4.28;;;14.50;99.90;;;;;;5043980;28;20433;-62
2023/05/23 07:59:52;;;;;;;14.13;4.60;;;14.50;99.90;;;;;;5033864;28;20033;-61
2023/05/23 08:02:18;;;;;;;16.75;4.03;;;14.50;99.90;;;;;;5052964;28;20083;-62
2023/05/23 08:04:45;;;;;;;15.00;4.28;;;14.40;99.90;;;;;;5046488;28;20120;-62
2023/05/23 08:07:11;;;;;;;16.92;4.22;;;14.50;99.90;;;;;;5053413;28;20024;-62
2023/05/23 08:09:40;;;;;;;15.38;4.13;;;14.40;99.90;;;;;;5027619;28;20575;-63
2023/05/23 08:12:07;;;;;;;10.88;3.88;;;14.50;99.90;;;;;;5033442;28;20463;-61
2023/05/23 08:14:33;;;;;;;18.95;4.18;;;14.50;99.90;;;;;;5044959;28;20120;-63
2023/05/23 08:16:59;;;;;;;17.38;4.47;;;14.50;99.90;;;;;;5045125;28;20137;-62
2023/05/23 08:19:25;;;;;;;21.83;4.32;;;14.60;99.90;;;;;;5035244;28;20040;-62
2023/05/23 08:21:52;;;;;;;15.93;4.15;;;14.60;99.90;;;;;;5045543;28;20030;-62
2023/05/23 08:24:19;;;;;;;15.55;3.95;;;14.60;99.90;;;;;;5042517;28;20041;-64
2023/05/23 08:26:45;;;;;;;19.55;4.10;;;14.70;99.90;;;;;;5035552;28;20037;-62
2023/05/23 08:29:13;;;;;;;16.00;4.10;;;14.80;99.90;;;;;;5040272;28;20037;-61
2023/05/23 08:31:39;;;;;;;15.85;4.30;;;14.80;99.90;;;;;;5016415;28;20079;-62
2023/05/23 08:34:06;;;;;;;15.27;3.75;;;14.90;99.90;;;;;;5044796;28;20554;-61
2023/05/23 08:36:35;;;;;;;16.67;3.95;;;14.90;99.90;;;;;;5047694;28;20041;-61
2023/05/23 08:39:01;;;;;;;17.55;3.67;;;15.00;99.90;;;;;;5042642;28;20044;-61
2023/05/23 08:41:28;;;;;;;16.70;4.00;;;15.00;99.90;;;;;;5049457;28;20079;-61
2023/05/23 08:43:54;;;;;;;13.50;3.85;;;15.20;99.90;;;;;;5045382;28;20052;-62
2023/05/23 08:46:21;;;;;;;15.10;4.50;;;15.20;99.90;;;;;;5051801;28;20033;-64
2023/05/23 08:48:53;;;;;;;13.48;3.45;;;15.30;99.90;;;;;;5037496;28;20087;-61
2023/05/23 08:51:21;;;;;;;13.77;3.47;;;15.60;99.90;;;;;;5057347;28;20441;-61
2023/05/23 08:53:47;;;;;;;12.25;3.28;;;15.70;99.90;;;;;;5036480;28;20039;-62
2023/05/23 08:56:13;;;;;;;13.77;3.95;;;15.80;99.90;;;;;;5052577;28;20063;-62
2023/05/23 08:58:43;;;;;;;19.15;3.70;;;15.70;99.90;;;;;;5035162;28;20041;-62
2023/05/23 09:01:10;;;;;;;15.70;3.80;;;15.70;99.90;;;;;;5051865;28;20570;-62
2023/05/23 09:03:36;;;;;;;14.63;3.83;;;15.60;99.90;;;;;;5034464;28;20025;-62
2023/05/23 09:06:05;;;;;;;21.05;4.00;;;15.70;99.90;;;;;;5052220;28;20043;-65
2023/05/23 09:08:31;;;;;;;18.08;4.15;;;15.90;99.90;;;;;;5030974;28;20462;-62
2023/05/23 09:10:57;;;;;;;13.48;4.43;;;16.10;99.90;;;;;;5032254;28;20064;-63
2023/05/23 09:13:22;;;;;;;15.50;4.00;;;16.40;99.90;;;;;;5056171;28;20055;-64
2023/05/23 09:16:03;;;;;;;16.60;4.05;;;16.60;99.90;;;;;;5034553;28;20483;-62
2023/05/23 09:18:39;;;;;;;15.38;4.22;;;16.90;99.90;;;;;;5050500;28;20519;-65
2023/05/23 09:21:06;;;;;;;17.00;3.95;;;17.10;99.90;;;;;;5050889;28;20086;-65
2023/05/23 09:23:33;;;;;;;15.63;3.95;;;17.00;99.90;;;;;;5030821;28;20048;-62
2023/05/23 09:26:10;;;;;;;15.32;3.90;;;16.90;99.90;;;;;;5049289;28;20032;-63
2023/05/23 09:28:37;;;;;;;16.80;4.18;;;16.80;99.90;;;;;;5051131;28;20048;-62
2023/05/23 09:31:05;;;;;;;14.88;4.22;;;16.90;99.90;;;;;;5032996;28;20076;-62
2023/05/23 09:33:51;;;;;;;11.68;3.60;;;16.90;99.90;;;;;;5051191;28;20033;-63
2023/05/23 09:36:17;;;;;;;13.63;3.90;;;16.90;99.90;;;;;;5043468;28;20035;-62
2023/05/23 09:38:45;;;;;;;18.35;3.80;;;17.00;99.90;;;;;;5049397;28;20109;-62
2023/05/23 09:41:13;;;;;;;15.18;4.10;;;17.00;99.90;;;;;;5050601;28;20043;-62
2023/05/23 09:43:48;;;;;;;15.57;3.88;;;17.10;99.90;;;;;;5050247;28;20487;-65
2023/05/23 09:46:14;;;;;;;14.75;4.05;;;17.10;99.90;;;;;;5044472;28;20033;-62
2023/05/23 09:48:39;;;;;;;14.07;3.35;;;17.20;99.90;;;;;;5053679;28;20097;-65
2023/05/23 09:51:09;;;;;;;11.20;3.78;;;17.40;99.90;;;;;;5052196;28;20514;-62
2023/05/23 09:53:35;;;;;;;12.55;4.07;;;17.50;99.90;;;;;;5034170;28;20094;-62
2023/05/23 09:56:04;;;;;;;17.08;3.78;;;17.50;99.90;;;;;;5033791;28;20049;-62
2023/05/23 09:58:32;;;;;;;15.85;3.85;;;17.50;99.90;;;;;;5051771;28;20045;-63
2023/05/23 10:01:02;;;;;;;14.38;3.75;;;17.40;99.90;;;;;;5012010;28;20045;-62
2023/05/23 10:03:39;;;;;;;13.00;3.92;;;17.40;99.90;;;;;;5033639;28;20041;-63
2023/05/23 10:06:16;;;;;;;15.38;4.68;;;17.40;99.90;;;;;;5030354;28;20479;-62
2023/05/23 10:08:50;;;;;;;13.20;3.33;;;17.70;99.90;;;;;;5045238;28;20112;-62
2023/05/23 10:11:45;;;;;;;13.73;3.45;;;17.90;99.90;;;;;;5044918;28;20410;-63
2023/05/23 10:14:12;;;;;;;13.48;3.60;;;17.90;99.90;;;;;;5051941;28;20037;-62
2023/05/23 10:16:47;;;;;;;15.55;4.43;;;17.80;99.90;;;;;;5055302;28;20066;-62
2023/05/23 10:19:26;;;;;;;12.40;3.58;;;17.70;99.90;;;;;;5031061;28;20498;-64
2023/05/23 10:22:02;;;;;;;17.00;3.90;;;17.60;99.90;;;;;;5051028;28;20097;-64
2023/05/23 10:24:28;;;;;;;14.80;3.30;;;17.70;99.90;;;;;;5048798;28;20041;-62
2023/05/23 10:26:54;;;;;;;12.57;3.40;;;17.90;99.90;;;;;;5043476;28;20598;-62
2023/05/23 10:29:24;;;;;;;13.60;3.42;;;18.20;99.90;;;;;;5050639;28;20045;-62
2023/05/23 10:31:51;;;;;;;10.95;3.42;;;18.50;99.90;;;;;;5025964;28;20037;-62
2023/05/23 10:34:56;;;;;;;8.70;3.40;;;18.80;99.90;;;;;;5025403;28;20080;-64
2023/05/23 10:37:47;;;;;;;10.63;2.90;;;19.00;99.90;;;;;;5032307;28;20045;-62
2023/05/23 10:40:25;;;;;;;13.85;3.28;;;19.20;99.90;;;;;;5033043;28;20110;-63
2023/05/23 10:43:01;;;;;;;11.57;3.28;;;19.30;99.90;;;;;;5033063;28;20033;-62
2023/05/23 10:45:27;;;;;;;11.63;3.28;;;19.30;99.70;;;;;;5045118;28;20510;-64
2023/05/23 10:47:53;;;;;;;19.23;3.60;;;19.10;99.40;;;;;;5052903;28;20052;-62
2023/05/23 10:50:32;;;;;;;11.60;3.00;;;19.00;99.20;;;;;;5050730;28;20033;-62
2023/05/23 10:53:00;;;;;;;12.05;3.50;;;18.80;99.00;;;;;;5050757;28;20064;-62
2023/05/23 10:55:31;;;;;;;14.45;3.40;;;19.00;99.30;;;;;;5039823;28;20383;-62
2023/05/23 10:58:19;;;;;;;12.48;3.10;;;19.30;99.30;;;;;;5031176;28;20457;-63
2023/05/23 11:00:52;;;;;;;12.80;3.83;;;19.50;97.70;;;;;;5032366;28;20045;-62
2023/05/23 11:03:17;;;;;;;12.30;3.30;;;19.30;98.00;;;;;;5050500;28;20041;-64
2023/05/23 11:05:52;;;;;;;15.18;3.03;;;19.10;98.30;;;;;;5047087;28;20299;-62
2023/05/23 11:08:19;;;;;;;11.60;3.05;;;19.00;97.80;;;;;;5048892;28;20494;-63
2023/05/23 11:11:03;;;;;;;12.75;3.08;;;19.00;98.70;;;;;;5050133;28;20043;-62
2023/05/23 11:13:55;;;;;;;9.93;3.22;;;19.10;98.70;;;;;;5032721;28;20047;-62
2023/05/23 11:16:29;;;;;;;15.02;3.60;;;19.30;98.20;;;;;;5026398;28;20048;-62
2023/05/23 11:19:33;;;;;;;12.60;3.10;;;19.30;98.30;;;;;;5015136;28;20120;-62
2023/05/23 11:22:04;;;;;;;10.93;3.08;;;19.20;97.30;;;;;;4991928;28;20377;-62
2023/05/23 11:24:50;;;;;;;20.30;3.28;;;19.20;98.20;;;;;;4991325;28;20411;-63
2023/05/23 11:27:18;;;;;;;19.25;3.60;;;19.20;97.70;;;;;;5010421;28;20052;-62
2023/05/23 11:30:04;;;;;;;11.68;3.45;;;19.30;98.40;;;;;;5049017;28;20033;-65
2023/05/23 11:32:30;;;;;;;11.32;3.03;;;19.50;98.10;;;;;;5017939;28;20053;-63
2023/05/23 11:35:01;;;;;;;11.77;2.97;;;19.50;97.40;;;;;;5049410;28;20380;-64
2023/05/23 11:37:27;;;;;;;11.60;2.88;;;19.30;97.10;;;;;;5032380;28;20495;-63
2023/05/23 11:39:52;;;;;;;9.32;2.70;;;19.20;97.10;;;;;;5049108;28;20407;-64
2023/05/23 11:42:18;;;;;;;12.50;3.13;;;19.00;97.00;;;;;;5027164;28;20040;-62
2023/05/23 11:44:47;;;;;;;8.25;2.90;;;18.90;96.30;;;;;;5047629;28;20376;-62
2023/05/23 11:47:12;;;;;;;12.73;3.00;;;18.80;96.60;;;;;;5032415;28;20483;-63
2023/05/23 11:49:39;;;;;;;13.98;3.03;;;18.70;96.70;;;;;;5050649;28;20064;-63
2023/05/23 11:52:06;;;;;;;10.07;2.95;;;18.70;96.90;;;;;;5031963;28;20142;-62
2023/05/23 11:54:32;;;;;;;10.70;3.05;;;18.70;97.10;;;;;;5048949;28;20045;-63
2023/05/23 11:56:58;;;;;;;10.32;2.70;;;18.80;97.20;;;;;;5015602;28;20063;-63
2023/05/23 11:59:25;;;;;;;11.10;3.13;;;19.00;97.00;;;;;;5048696;28;20033;-62
2023/05/23 12:01:54;;;;;;;9.63;3.00;;;19.10;96.30;;;;;;5046032;28;20044;-62
2023/05/23 12:04:20;;;;;;;14.65;3.47;;;19.00;95.80;;;;;;5030748;28;20051;-61
2023/05/23 12:06:47;;;;;;;10.35;3.30;;;18.90;95.70;;;;;;5050381;28;20029;-62
2023/05/23 12:09:13;;;;;;;9.50;3.03;;;18.80;96.00;;;;;;5032194;28;20037;-61
2023/05/23 12:11:40;;;;;;;9.98;3.30;;;18.70;96.40;;;;;;5049396;28;20052;-62
2023/05/23 12:14:13;;;;;;;12.45;3.17;;;18.60;96.40;;;;;;5036147;28;20037;-62
2023/05/23 12:16:41;;;;;;;10.20;3.17;;;18.60;96.70;;;;;;5049597;28;20124;-62
2023/05/23 12:19:07;;;;;;;11.98;3.50;;;18.60;96.60;;;;;;5045300;28;20041;-62
2023/05/23 12:21:48;;;;;;;12.07;3.40;;;18.60;96.30;;;;;;5030909;28;20574;-62
2023/05/23 12:24:21;;;;;;;11.10;2.92;;;18.70;96.50;;;;;;5067669;22;20132;-61
2023/05/23 12:26:54;;;;;;;11.90;2.90;;;18.80;96.20;;;;;;5049473;28;20032;-61
2023/05/23 12:29:33;;;;;;;10.27;3.00;;;18.70;95.90;;;;;;5027760;28;20263;-61
2023/05/23 12:32:00;;;;;;;12.40;3.13;;;18.70;95.90;;;;;;5039849;28;20120;-61
2023/05/23 12:34:26;;;;;;;8.45;2.72;;;18.90;96.30;;;;;;5031233;28;20451;-61
2023/05/23 12:36:56;;;;;;;11.73;3.40;;;19.10;96.20;;;;;;5047594;28;20111;-61
2023/05/23 12:39:28;;;;;;;13.27;3.45;;;19.20;95.90;;;;;;5031273;28;20045;-61
2023/05/23 12:42:05;;;;;;;14.00;3.53;;;19.10;95.60;;;;;;5024833;28;20037;-61